aviador You're here:

KVTI Decoded Metar

VINTON in IA, USA
Report Time2018-01-18 13:55:00
UTC Time2018-01-18 13:55:19
Flight Rules unknown UNKNOWN
Wind180° at 04 kt
W.Decomp.*RWY 16: 3.8 kt HW 1.3 kt RCW
RWY 09: 0.1 kt HW 4.0 kt RCW
W.Rank180° ranks 3
Current wind is below 180° avg. (7.9)
VisibilityN/A
Phenomena:N/A
Clouds:N/A
Expected CloudBase > 1,200 ft AGL from Temp-Dew spread
CeilingNone
Temp-9°C (ISA -22)
Dew Point-12°C (79% RH)
AAT-13.6°C
QNH1019 hPa
Density Alt-2,113 ft
Elevation837 ft
Report Wrong Elevation
Raw Report
METAR KVTI 181355Z AUTO 18004KT CLR M09/M12 A3008 RMK AO2 T10861122
PWINO=

Extra information for KVTI:More info

Metar Taf Metar & Taf Last 4 Metars F.Rules Stats Wind Profile Meteogram Temp Stats Airport Information Weather charts Add Link Nearby VenuesMetar ALERT Operation Metar Decoded Social comments

AIRNAV info for KVTI